sensor_id;sensor_type;location;lat;lon;timestamp;P1;durP1;ratioP1;P2;durP2;ratioP2
41925;SDS011;27615;51.826;5.692;2022-12-18T00:00:41;40.85;;;18.27;;
41925;SDS011;27615;51.826;5.692;2022-12-18T00:03:07;44.03;;;19.23;;
41925;SDS011;27615;51.826;5.692;2022-12-18T00:05:32;42.55;;;20.15;;
41925;SDS011;27615;51.826;5.692;2022-12-18T00:07:58;42.05;;;20.08;;
41925;SDS011;27615;51.826;5.692;2022-12-18T00:10:23;48.03;;;20.38;;
41925;SDS011;27615;51.826;5.692;2022-12-18T00:12:49;83.35;;;34.42;;
41925;SDS011;27615;51.826;5.692;2022-12-18T00:15:15;79.97;;;32.25;;
41925;SDS011;27615;51.826;5.692;2022-12-18T00:17:40;76.95;;;32.60;;
41925;SDS011;27615;51.826;5.692;2022-12-18T00:20:06;63.65;;;28.92;;
41925;SDS011;27615;51.826;5.692;2022-12-18T00:22:32;59.80;;;25.20;;
41925;SDS011;27615;51.826;5.692;2022-12-18T00:24:57;58.40;;;26.00;;
41925;SDS011;27615;51.826;5.692;2022-12-18T00:27:23;52.63;;;22.55;;
41925;SDS011;27615;51.826;5.692;2022-12-18T00:29:48;54.67;;;22.33;;
41925;SDS011;27615;51.826;5.692;2022-12-18T00:32:14;57.47;;;23.52;;
41925;SDS011;27615;51.826;5.692;2022-12-18T00:34:39;52.08;;;22.70;;
41925;SDS011;27615;51.826;5.692;2022-12-18T00:37:05;47.50;;;21.58;;
41925;SDS011;27615;51.826;5.692;2022-12-18T00:39:31;54.60;;;25.65;;
41925;SDS011;27615;51.826;5.692;2022-12-18T00:41:56;54.15;;;24.02;;
41925;SDS011;27615;51.826;5.692;2022-12-18T00:44:40;46.42;;;21.80;;
41925;SDS011;27615;51.826;5.692;2022-12-18T00:47:06;44.08;;;20.20;;
41925;SDS011;27615;51.826;5.692;2022-12-18T00:49:31;45.53;;;20.65;;
41925;SDS011;27615;51.826;5.692;2022-12-18T00:51:57;39.25;;;19.17;;
41925;SDS011;27615;51.826;5.692;2022-12-18T00:54:22;73.60;;;31.02;;
41925;SDS011;27615;51.826;5.692;2022-12-18T00:56:48;78.40;;;32.70;;
41925;SDS011;27615;51.826;5.692;2022-12-18T00:59:14;70.50;;;32.08;;
41925;SDS011;27615;51.826;5.692;2022-12-18T01:01:40;75.28;;;34.67;;
41925;SDS011;27615;51.826;5.692;2022-12-18T01:04:05;68.85;;;30.13;;
41925;SDS011;27615;51.826;5.692;2022-12-18T01:06:31;73.60;;;32.72;;
41925;SDS011;27615;51.826;5.692;2022-12-18T01:08:56;73.22;;;31.85;;
41925;SDS011;27615;51.826;5.692;2022-12-18T01:11:22;72.15;;;34.15;;
41925;SDS011;27615;51.826;5.692;2022-12-18T01:13:48;68.35;;;31.48;;
41925;SDS011;27615;51.826;5.692;2022-12-18T01:16:14;61.20;;;29.40;;
41925;SDS011;27615;51.826;5.692;2022-12-18T01:18:41;64.20;;;29.33;;
41925;SDS011;27615;51.826;5.692;2022-12-18T01:21:07;64.78;;;31.02;;
41925;SDS011;27615;51.826;5.692;2022-12-18T01:23:34;65.32;;;29.15;;
41925;SDS011;27615;51.826;5.692;2022-12-18T01:26:33;60.20;;;29.92;;
41925;SDS011;27615;51.826;5.692;2022-12-18T01:28:54;63.97;;;28.05;;
41925;SDS011;27615;51.826;5.692;2022-12-18T01:31:22;63.85;;;28.55;;
41925;SDS011;27615;51.826;5.692;2022-12-18T01:33:50;57.08;;;29.13;;
41925;SDS011;27615;51.826;5.692;2022-12-18T01:38:47;64.05;;;29.77;;
41925;SDS011;27615;51.826;5.692;2022-12-18T01:41:14;61.50;;;28.58;;
41925;SDS011;27615;51.826;5.692;2022-12-18T01:43:45;59.92;;;28.30;;
41925;SDS011;27615;51.826;5.692;2022-12-18T01:46:20;56.15;;;26.90;;
41925;SDS011;27615;51.826;5.692;2022-12-18T01:48:56;56.72;;;27.80;;
41925;SDS011;27615;51.826;5.692;2022-12-18T01:51:24;58.60;;;29.50;;
41925;SDS011;27615;51.826;5.692;2022-12-18T01:53:51;51.97;;;25.38;;
41925;SDS011;27615;51.826;5.692;2022-12-18T01:56:18;53.85;;;26.30;;
41925;SDS011;27615;51.826;5.692;2022-12-18T01:59:02;51.67;;;26.02;;
41925;SDS011;27615;51.826;5.692;2022-12-18T02:01:31;50.40;;;25.08;;
41925;SDS011;27615;51.826;5.692;2022-12-18T02:04:14;54.70;;;25.33;;
41925;SDS011;27615;51.826;5.692;2022-12-18T02:06:50;54.80;;;26.55;;
41925;SDS011;27615;51.826;5.692;2022-12-18T02:09:27;49.83;;;24.30;;
41925;SDS011;27615;51.826;5.692;2022-12-18T02:12:20;52.35;;;24.48;;
41925;SDS011;27615;51.826;5.692;2022-12-18T02:14:53;50.92;;;23.23;;
41925;SDS011;27615;51.826;5.692;2022-12-18T02:17:38;50.80;;;23.17;;
41925;SDS011;27615;51.826;5.692;2022-12-18T02:20:14;50.35;;;24.52;;
41925;SDS011;27615;51.826;5.692;2022-12-18T02:22:51;50.35;;;24.38;;
41925;SDS011;27615;51.826;5.692;2022-12-18T02:28:26;47.35;;;23.63;;
41925;SDS011;27615;51.826;5.692;2022-12-18T02:30:56;47.17;;;23.20;;
41925;SDS011;27615;51.826;5.692;2022-12-18T02:33:27;46.30;;;22.70;;
41925;SDS011;27615;51.826;5.692;2022-12-18T02:35:53;44.15;;;22.35;;
41925;SDS011;27615;51.826;5.692;2022-12-18T02:38:21;47.97;;;24.42;;
41925;SDS011;27615;51.826;5.692;2022-12-18T02:40:49;52.35;;;23.33;;
41925;SDS011;27615;51.826;5.692;2022-12-18T02:43:16;48.80;;;24.42;;
41925;SDS011;27615;51.826;5.692;2022-12-18T02:45:55;45.55;;;22.02;;
41925;SDS011;27615;51.826;5.692;2022-12-18T02:48:30;44.25;;;23.10;;
41925;SDS011;27615;51.826;5.692;2022-12-18T02:51:08;43.75;;;22.52;;
41925;SDS011;27615;51.826;5.692;2022-12-18T02:53:55;45.25;;;22.55;;
41925;SDS011;27615;51.826;5.692;2022-12-18T02:56:54;47.13;;;22.05;;
41925;SDS011;27615;51.826;5.692;2022-12-18T02:59:19;41.25;;;22.40;;
41925;SDS011;27615;51.826;5.692;2022-12-18T03:04:27;45.55;;;21.98;;
41925;SDS011;27615;51.826;5.692;2022-12-18T03:06:58;42.80;;;21.83;;
41925;SDS011;27615;51.826;5.692;2022-12-18T03:09:38;40.17;;;21.13;;
41925;SDS011;27615;51.826;5.692;2022-12-18T03:12:15;37.35;;;19.85;;
41925;SDS011;27615;51.826;5.692;2022-12-18T03:14:48;37.00;;;20.00;;
41925;SDS011;27615;51.826;5.692;2022-12-18T03:17:29;38.92;;;19.48;;
41925;SDS011;27615;51.826;5.692;2022-12-18T03:19:57;39.92;;;20.17;;
41925;SDS011;27615;51.826;5.692;2022-12-18T03:22:27;35.75;;;19.45;;
41925;SDS011;27615;51.826;5.692;2022-12-18T03:24:56;35.08;;;17.33;;
41925;SDS011;27615;51.826;5.692;2022-12-18T03:27:26;33.35;;;18.00;;
41925;SDS011;27615;51.826;5.692;2022-12-18T03:29:57;26.63;;;15.70;;
41925;SDS011;27615;51.826;5.692;2022-12-18T03:32:33;25.38;;;15.07;;
41925;SDS011;27615;51.826;5.692;2022-12-18T03:35:24;29.02;;;16.73;;
41925;SDS011;27615;51.826;5.692;2022-12-18T03:37:53;32.53;;;17.13;;
41925;SDS011;27615;51.826;5.692;2022-12-18T03:40:20;40.67;;;20.10;;
41925;SDS011;27615;51.826;5.692;2022-12-18T03:43:00;37.33;;;19.52;;
41925;SDS011;27615;51.826;5.692;2022-12-18T03:45:38;36.67;;;18.73;;
41925;SDS011;27615;51.826;5.692;2022-12-18T03:51:07;32.72;;;17.85;;
41925;SDS011;27615;51.826;5.692;2022-12-18T03:56:27;34.42;;;17.98;;
41925;SDS011;27615;51.826;5.692;2022-12-18T03:58:55;35.70;;;18.83;;
41925;SDS011;27615;51.826;5.692;2022-12-18T04:01:25;41.10;;;20.50;;
41925;SDS011;27615;51.826;5.692;2022-12-18T04:03:58;37.15;;;17.67;;
41925;SDS011;27615;51.826;5.692;2022-12-18T04:06:26;37.17;;;18.27;;
41925;SDS011;27615;51.826;5.692;2022-12-18T04:08:52;39.63;;;18.88;;
41925;SDS011;27615;51.826;5.692;2022-12-18T04:11:18;27.58;;;15.30;;
41925;SDS011;27615;51.826;5.692;2022-12-18T04:13:44;34.00;;;18.02;;
41925;SDS011;27615;51.826;5.692;2022-12-18T04:16:09;29.88;;;17.08;;
41925;SDS011;27615;51.826;5.692;2022-12-18T04:18:35;33.60;;;17.45;;
41925;SDS011;27615;51.826;5.692;2022-12-18T04:21:01;33.08;;;18.73;;
41925;SDS011;27615;51.826;5.692;2022-12-18T04:23:27;30.25;;;16.40;;
41925;SDS011;27615;51.826;5.692;2022-12-18T04:25:53;30.95;;;16.00;;
41925;SDS011;27615;51.826;5.692;2022-12-18T04:28:19;31.80;;;16.20;;
41925;SDS011;27615;51.826;5.692;2022-12-18T04:30:48;34.55;;;17.48;;
41925;SDS011;27615;51.826;5.692;2022-12-18T04:33:14;36.38;;;17.92;;
41925;SDS011;27615;51.826;5.692;2022-12-18T04:35:42;31.85;;;16.27;;
41925;SDS011;27615;51.826;5.692;2022-12-18T04:38:08;30.20;;;16.88;;
41925;SDS011;27615;51.826;5.692;2022-12-18T04:40:35;27.50;;;14.57;;
41925;SDS011;27615;51.826;5.692;2022-12-18T04:43:01;30.52;;;14.50;;
41925;SDS011;27615;51.826;5.692;2022-12-18T04:45:27;27.83;;;14.20;;
41925;SDS011;27615;51.826;5.692;2022-12-18T04:47:53;29.42;;;15.40;;
41925;SDS011;27615;51.826;5.692;2022-12-18T04:50:18;31.92;;;16.33;;
41925;SDS011;27615;51.826;5.692;2022-12-18T04:52:44;26.05;;;15.07;;
41925;SDS011;27615;51.826;5.692;2022-12-18T04:55:09;29.25;;;14.60;;
41925;SDS011;27615;51.826;5.692;2022-12-18T04:57:35;24.63;;;14.13;;
41925;SDS011;27615;51.826;5.692;2022-12-18T05:00:01;22.88;;;13.38;;
41925;SDS011;27615;51.826;5.692;2022-12-18T05:02:27;28.13;;;15.60;;
41925;SDS011;27615;51.826;5.692;2022-12-18T05:04:53;32.95;;;15.88;;
41925;SDS011;27615;51.826;5.692;2022-12-18T05:07:18;28.70;;;16.55;;
41925;SDS011;27615;51.826;5.692;2022-12-18T05:09:44;30.70;;;15.43;;
41925;SDS011;27615;51.826;5.692;2022-12-18T05:12:09;28.80;;;14.60;;
41925;SDS011;27615;51.826;5.692;2022-12-18T05:14:35;29.88;;;15.40;;
41925;SDS011;27615;51.826;5.692;2022-12-18T05:17:00;28.52;;;16.33;;
41925;SDS011;27615;51.826;5.692;2022-12-18T05:19:26;30.35;;;15.75;;
41925;SDS011;27615;51.826;5.692;2022-12-18T05:21:51;30.98;;;16.17;;
41925;SDS011;27615;51.826;5.692;2022-12-18T05:24:17;29.58;;;15.38;;
41925;SDS011;27615;51.826;5.692;2022-12-18T05:26:42;28.90;;;15.43;;
41925;SDS011;27615;51.826;5.692;2022-12-18T05:29:08;28.67;;;14.52;;
41925;SDS011;27615;51.826;5.692;2022-12-18T05:31:37;31.40;;;15.50;;
41925;SDS011;27615;51.826;5.692;2022-12-18T05:34:03;30.92;;;15.90;;
41925;SDS011;27615;51.826;5.692;2022-12-18T05:36:28;29.58;;;14.30;;
41925;SDS011;27615;51.826;5.692;2022-12-18T05:38:54;27.58;;;16.05;;
41925;SDS011;27615;51.826;5.692;2022-12-18T05:41:19;27.17;;;14.40;;
41925;SDS011;27615;51.826;5.692;2022-12-18T05:43:45;30.05;;;14.93;;
41925;SDS011;27615;51.826;5.692;2022-12-18T05:46:13;24.85;;;14.80;;
41925;SDS011;27615;51.826;5.692;2022-12-18T05:48:41;29.02;;;16.50;;
41925;SDS011;27615;51.826;5.692;2022-12-18T05:51:14;25.02;;;14.02;;
41925;SDS011;27615;51.826;5.692;2022-12-18T05:53:41;27.38;;;14.18;;
41925;SDS011;27615;51.826;5.692;2022-12-18T05:56:08;26.05;;;14.85;;
41925;SDS011;27615;51.826;5.692;2022-12-18T05:58:36;29.25;;;14.20;;
41925;SDS011;27615;51.826;5.692;2022-12-18T06:01:06;28.17;;;15.68;;
41925;SDS011;27615;51.826;5.692;2022-12-18T06:03:39;20.92;;;12.23;;
41925;SDS011;27615;51.826;5.692;2022-12-18T06:06:12;30.90;;;15.15;;
41925;SDS011;27615;51.826;5.692;2022-12-18T06:08:39;23.05;;;13.30;;
41925;SDS011;27615;51.826;5.692;2022-12-18T06:11:04;24.50;;;13.20;;
41925;SDS011;27615;51.826;5.692;2022-12-18T06:13:30;25.45;;;13.38;;
41925;SDS011;27615;51.826;5.692;2022-12-18T06:15:55;22.65;;;11.98;;
41925;SDS011;27615;51.826;5.692;2022-12-18T06:18:21;21.48;;;12.25;;
41925;SDS011;27615;51.826;5.692;2022-12-18T06:20:53;20.58;;;12.27;;
41925;SDS011;27615;51.826;5.692;2022-12-18T06:23:21;29.88;;;15.07;;
41925;SDS011;27615;51.826;5.692;2022-12-18T06:25:46;26.80;;;14.52;;
41925;SDS011;27615;51.826;5.692;2022-12-18T06:28:12;26.17;;;14.55;;
41925;SDS011;27615;51.826;5.692;2022-12-18T06:30:37;27.90;;;13.90;;
41925;SDS011;27615;51.826;5.692;2022-12-18T06:33:03;22.75;;;13.77;;
41925;SDS011;27615;51.826;5.692;2022-12-18T06:35:28;27.52;;;15.60;;
41925;SDS011;27615;51.826;5.692;2022-12-18T06:37:54;27.48;;;14.35;;
41925;SDS011;27615;51.826;5.692;2022-12-18T06:40:19;26.98;;;15.40;;
41925;SDS011;27615;51.826;5.692;2022-12-18T06:42:45;25.90;;;15.02;;
41925;SDS011;27615;51.826;5.692;2022-12-18T06:45:11;26.10;;;14.80;;
41925;SDS011;27615;51.826;5.692;2022-12-18T06:47:41;30.40;;;15.82;;
41925;SDS011;27615;51.826;5.692;2022-12-18T06:50:07;26.95;;;13.43;;
41925;SDS011;27615;51.826;5.692;2022-12-18T06:52:33;24.05;;;13.85;;
41925;SDS011;27615;51.826;5.692;2022-12-18T06:54:59;22.98;;;13.15;;
41925;SDS011;27615;51.826;5.692;2022-12-18T06:57:24;26.10;;;14.75;;
41925;SDS011;27615;51.826;5.692;2022-12-18T06:59:50;26.10;;;14.55;;
41925;SDS011;27615;51.826;5.692;2022-12-18T07:02:15;27.10;;;14.73;;
41925;SDS011;27615;51.826;5.692;2022-12-18T07:04:41;31.98;;;15.65;;
41925;SDS011;27615;51.826;5.692;2022-12-18T07:07:06;27.00;;;14.35;;
41925;SDS011;27615;51.826;5.692;2022-12-18T07:09:32;31.65;;;15.82;;
41925;SDS011;27615;51.826;5.692;2022-12-18T07:11:57;27.75;;;14.60;;
41925;SDS011;27615;51.826;5.692;2022-12-18T07:14:23;28.33;;;16.00;;
41925;SDS011;27615;51.826;5.692;2022-12-18T07:16:48;29.05;;;15.63;;
41925;SDS011;27615;51.826;5.692;2022-12-18T07:19:14;28.88;;;15.55;;
41925;SDS011;27615;51.826;5.692;2022-12-18T07:21:39;28.75;;;15.40;;
41925;SDS011;27615;51.826;5.692;2022-12-18T07:24:05;29.17;;;14.45;;
41925;SDS011;27615;51.826;5.692;2022-12-18T07:26:31;26.08;;;13.27;;
41925;SDS011;27615;51.826;5.692;2022-12-18T07:28:57;27.90;;;15.07;;
41925;SDS011;27615;51.826;5.692;2022-12-18T07:31:23;26.15;;;14.85;;
41925;SDS011;27615;51.826;5.692;2022-12-18T07:33:49;27.33;;;15.07;;
41925;SDS011;27615;51.826;5.692;2022-12-18T07:36:16;28.65;;;15.02;;
41925;SDS011;27615;51.826;5.692;2022-12-18T07:38:42;26.25;;;14.05;;
41925;SDS011;27615;51.826;5.692;2022-12-18T07:41:09;25.20;;;14.63;;
41925;SDS011;27615;51.826;5.692;2022-12-18T07:43:36;23.10;;;13.95;;
41925;SDS011;27615;51.826;5.692;2022-12-18T07:46:03;27.20;;;15.35;;
41925;SDS011;27615;51.826;5.692;2022-12-18T07:48:29;29.35;;;15.60;;
41925;SDS011;27615;51.826;5.692;2022-12-18T07:51:01;23.58;;;13.32;;
41925;SDS011;27615;51.826;5.692;2022-12-18T07:53:29;24.33;;;13.63;;
41925;SDS011;27615;51.826;5.692;2022-12-18T07:55:59;24.02;;;14.35;;
41925;SDS011;27615;51.826;5.692;2022-12-18T07:58:27;27.10;;;15.13;;
41925;SDS011;27615;51.826;5.692;2022-12-18T08:00:53;27.95;;;15.00;;
41925;SDS011;27615;51.826;5.692;2022-12-18T08:03:19;33.35;;;16.85;;
41925;SDS011;27615;51.826;5.692;2022-12-18T08:05:45;26.58;;;14.65;;
41925;SDS011;27615;51.826;5.692;2022-12-18T08:08:10;27.63;;;14.52;;
41925;SDS011;27615;51.826;5.692;2022-12-18T08:10:37;25.70;;;14.27;;
41925;SDS011;27615;51.826;5.692;2022-12-18T08:13:03;27.27;;;14.50;;
41925;SDS011;27615;51.826;5.692;2022-12-18T08:15:28;29.05;;;15.45;;
41925;SDS011;27615;51.826;5.692;2022-12-18T08:17:56;26.08;;;14.88;;
41925;SDS011;27615;51.826;5.692;2022-12-18T08:20:22;28.27;;;14.60;;
41925;SDS011;27615;51.826;5.692;2022-12-18T08:22:47;26.10;;;14.15;;
41925;SDS011;27615;51.826;5.692;2022-12-18T08:25:13;22.88;;;12.98;;
41925;SDS011;27615;51.826;5.692;2022-12-18T08:27:38;23.95;;;13.18;;
41925;SDS011;27615;51.826;5.692;2022-12-18T08:30:04;26.38;;;14.85;;
41925;SDS011;27615;51.826;5.692;2022-12-18T08:32:30;27.73;;;14.50;;
41925;SDS011;27615;51.826;5.692;2022-12-18T08:34:57;24.33;;;13.35;;
41925;SDS011;27615;51.826;5.692;2022-12-18T08:37:23;25.75;;;13.75;;
41925;SDS011;27615;51.826;5.692;2022-12-18T08:39:49;29.50;;;15.20;;
41925;SDS011;27615;51.826;5.692;2022-12-18T08:42:14;28.73;;;13.80;;
41925;SDS011;27615;51.826;5.692;2022-12-18T08:44:58;29.73;;;14.60;;
41925;SDS011;27615;51.826;5.692;2022-12-18T08:47:24;24.55;;;14.73;;
41925;SDS011;27615;51.826;5.692;2022-12-18T08:49:51;28.40;;;13.85;;
41925;SDS011;27615;51.826;5.692;2022-12-18T08:52:16;25.05;;;13.90;;
41925;SDS011;27615;51.826;5.692;2022-12-18T08:54:42;28.33;;;14.52;;
41925;SDS011;27615;51.826;5.692;2022-12-18T08:57:07;28.25;;;13.88;;
41925;SDS011;27615;51.826;5.692;2022-12-18T08:59:33;28.17;;;14.43;;
41925;SDS011;27615;51.826;5.692;2022-12-18T09:01:59;24.92;;;13.07;;
41925;SDS011;27615;51.826;5.692;2022-12-18T09:04:24;23.95;;;13.23;;
41925;SDS011;27615;51.826;5.692;2022-12-18T09:06:50;26.10;;;13.70;;
41925;SDS011;27615;51.826;5.692;2022-12-18T09:09:15;25.42;;;13.82;;
41925;SDS011;27615;51.826;5.692;2022-12-18T09:11:41;26.42;;;13.88;;
41925;SDS011;27615;51.826;5.692;2022-12-18T09:14:06;26.42;;;14.05;;
41925;SDS011;27615;51.826;5.692;2022-12-18T09:16:33;24.83;;;13.43;;
41925;SDS011;27615;51.826;5.692;2022-12-18T09:19:00;21.60;;;12.65;;
41925;SDS011;27615;51.826;5.692;2022-12-18T09:21:27;23.85;;;13.02;;
41925;SDS011;27615;51.826;5.692;2022-12-18T09:23:55;24.90;;;13.18;;
41925;SDS011;27615;51.826;5.692;2022-12-18T09:26:21;23.08;;;12.35;;
41925;SDS011;27615;51.826;5.692;2022-12-18T09:28:47;24.90;;;12.25;;
41925;SDS011;27615;51.826;5.692;2022-12-18T09:31:13;24.65;;;13.85;;
41925;SDS011;27615;51.826;5.692;2022-12-18T09:33:39;22.58;;;12.93;;
41925;SDS011;27615;51.826;5.692;2022-12-18T09:36:09;21.23;;;12.02;;
41925;SDS011;27615;51.826;5.692;2022-12-18T09:38:39;25.77;;;13.82;;
41925;SDS011;27615;51.826;5.692;2022-12-18T09:43:56;24.52;;;13.07;;
41925;SDS011;27615;51.826;5.692;2022-12-18T09:46:29;21.90;;;12.63;;
41925;SDS011;27615;51.826;5.692;2022-12-18T09:49:01;27.27;;;13.27;;
41925;SDS011;27615;51.826;5.692;2022-12-18T09:51:39;22.77;;;13.20;;
41925;SDS011;27615;51.826;5.692;2022-12-18T09:54:25;26.30;;;13.38;;
41925;SDS011;27615;51.826;5.692;2022-12-18T09:56:57;24.02;;;12.57;;
41925;SDS011;27615;51.826;5.692;2022-12-18T09:59:24;23.08;;;12.85;;
41925;SDS011;27615;51.826;5.692;2022-12-18T10:01:52;22.25;;;12.73;;
41925;SDS011;27615;51.826;5.692;2022-12-18T10:04:18;22.42;;;12.18;;
41925;SDS011;27615;51.826;5.692;2022-12-18T10:06:46;21.50;;;11.73;;
41925;SDS011;27615;51.826;5.692;2022-12-18T10:09:37;23.92;;;12.95;;
41925;SDS011;27615;51.826;5.692;2022-12-18T10:12:16;21.48;;;11.00;;
41925;SDS011;27615;51.826;5.692;2022-12-18T10:14:57;23.17;;;12.18;;
41925;SDS011;27615;51.826;5.692;2022-12-18T10:17:35;25.33;;;14.10;;
41925;SDS011;27615;51.826;5.692;2022-12-18T10:20:05;22.90;;;11.95;;
41925;SDS011;27615;51.826;5.692;2022-12-18T10:25:23;20.63;;;11.88;;
41925;SDS011;27615;51.826;5.692;2022-12-18T10:27:54;20.77;;;11.57;;
41925;SDS011;27615;51.826;5.692;2022-12-18T10:30:23;21.25;;;12.02;;
41925;SDS011;27615;51.826;5.692;2022-12-18T10:32:50;21.13;;;11.77;;
41925;SDS011;27615;51.826;5.692;2022-12-18T10:35:18;22.60;;;12.88;;
41925;SDS011;27615;51.826;5.692;2022-12-18T10:38:03;24.40;;;12.35;;
41925;SDS011;27615;51.826;5.692;2022-12-18T10:40:31;23.42;;;12.45;;
41925;SDS011;27615;51.826;5.692;2022-12-18T10:43:31;21.63;;;11.73;;
41925;SDS011;27615;51.826;5.692;2022-12-18T10:48:34;20.67;;;12.00;;
41925;SDS011;27615;51.826;5.692;2022-12-18T10:51:25;21.58;;;12.10;;
41925;SDS011;27615;51.826;5.692;2022-12-18T10:54:35;23.02;;;13.70;;
41925;SDS011;27615;51.826;5.692;2022-12-18T10:59:16;19.23;;;11.13;;
41925;SDS011;27615;51.826;5.692;2022-12-18T11:01:58;21.00;;;11.85;;
41925;SDS011;27615;51.826;5.692;2022-12-18T11:04:28;22.20;;;11.48;;
41925;SDS011;27615;51.826;5.692;2022-12-18T11:07:02;21.80;;;12.60;;
41925;SDS011;27615;51.826;5.692;2022-12-18T11:09:34;26.10;;;13.30;;
41925;SDS011;27615;51.826;5.692;2022-12-18T11:12:02;22.55;;;11.85;;
41925;SDS011;27615;51.826;5.692;2022-12-18T11:14:49;18.27;;;10.50;;
41925;SDS011;27615;51.826;5.692;2022-12-18T11:17:31;21.90;;;11.90;;
41925;SDS011;27615;51.826;5.692;2022-12-18T11:20:05;20.52;;;12.40;;
41925;SDS011;27615;51.826;5.692;2022-12-18T11:22:44;22.05;;;11.75;;
41925;SDS011;27615;51.826;5.692;2022-12-18T11:25:26;19.55;;;11.57;;
41925;SDS011;27615;51.826;5.692;2022-12-18T11:27:56;20.92;;;12.55;;
41925;SDS011;27615;51.826;5.692;2022-12-18T11:30:26;23.27;;;11.95;;
41925;SDS011;27615;51.826;5.692;2022-12-18T11:33:03;20.90;;;11.55;;
41925;SDS011;27615;51.826;5.692;2022-12-18T11:35:52;22.27;;;12.60;;
41925;SDS011;27615;51.826;5.692;2022-12-18T11:38:31;23.27;;;12.90;;
41925;SDS011;27615;51.826;5.692;2022-12-18T11:41:07;25.42;;;13.52;;
41925;SDS011;27615;51.826;5.692;2022-12-18T11:44:22;20.98;;;11.32;;
41925;SDS011;27615;51.826;5.692;2022-12-18T11:49:55;25.05;;;14.02;;
41925;SDS011;27615;51.826;5.692;2022-12-18T11:52:26;20.70;;;12.18;;
41925;SDS011;27615;51.826;5.692;2022-12-18T11:54:59;20.83;;;12.63;;
41925;SDS011;27615;51.826;5.692;2022-12-18T11:57:38;26.40;;;13.68;;
41925;SDS011;27615;51.826;5.692;2022-12-18T12:00:25;22.45;;;12.75;;
41925;SDS011;27615;51.826;5.692;2022-12-18T12:08:24;25.17;;;13.10;;
41925;SDS011;27615;51.826;5.692;2022-12-18T12:19:05;21.45;;;12.77;;
41925;SDS011;27615;51.826;5.692;2022-12-18T12:21:43;23.70;;;13.35;;
41925;SDS011;27615;51.826;5.692;2022-12-18T12:29:58;24.10;;;13.70;;
41925;SDS011;27615;51.826;5.692;2022-12-18T12:32:38;21.48;;;12.73;;
41925;SDS011;27615;51.826;5.692;2022-12-18T12:35:31;20.60;;;12.95;;
41925;SDS011;27615;51.826;5.692;2022-12-18T12:38:26;23.35;;;12.20;;
41925;SDS011;27615;51.826;5.692;2022-12-18T12:41:07;25.85;;;13.93;;
41925;SDS011;27615;51.826;5.692;2022-12-18T12:43:56;25.20;;;14.40;;
41925;SDS011;27615;51.826;5.692;2022-12-18T12:46:24;23.88;;;13.70;;
41925;SDS011;27615;51.826;5.692;2022-12-18T12:48:56;19.98;;;12.88;;
41925;SDS011;27615;51.826;5.692;2022-12-18T12:51:32;24.00;;;13.52;;
41925;SDS011;27615;51.826;5.692;2022-12-18T12:54:03;24.40;;;13.10;;
41925;SDS011;27615;51.826;5.692;2022-12-18T12:56:36;21.58;;;12.48;;
41925;SDS011;27615;51.826;5.692;2022-12-18T13:04:47;19.25;;;11.68;;
41925;SDS011;27615;51.826;5.692;2022-12-18T13:07:24;23.67;;;14.38;;
41925;SDS011;27615;51.826;5.692;2022-12-18T13:12:54;25.00;;;13.75;;
41925;SDS011;27615;51.826;5.692;2022-12-18T13:15:30;26.27;;;13.20;;
41925;SDS011;27615;51.826;5.692;2022-12-18T13:26:33;21.65;;;12.57;;
41925;SDS011;27615;51.826;5.692;2022-12-18T13:31:14;25.02;;;13.43;;
41925;SDS011;27615;51.826;5.692;2022-12-18T13:36:51;25.15;;;13.82;;
41925;SDS011;27615;51.826;5.692;2022-12-18T13:44:35;22.52;;;13.05;;
41925;SDS011;27615;51.826;5.692;2022-12-18T13:47:07;26.77;;;13.15;;
41925;SDS011;27615;51.826;5.692;2022-12-18T13:49:56;24.63;;;13.95;;
41925;SDS011;27615;51.826;5.692;2022-12-18T13:52:25;25.40;;;14.48;;
41925;SDS011;27615;51.826;5.692;2022-12-18T13:55:04;23.67;;;12.80;;
41925;SDS011;27615;51.826;5.692;2022-12-18T13:57:36;25.27;;;14.23;;
41925;SDS011;27615;51.826;5.692;2022-12-18T14:02:58;26.70;;;13.90;;
41925;SDS011;27615;51.826;5.692;2022-12-18T14:05:27;24.30;;;14.15;;
41925;SDS011;27615;51.826;5.692;2022-12-18T14:08:01;24.63;;;14.20;;
41925;SDS011;27615;51.826;5.692;2022-12-18T14:10:40;28.70;;;14.25;;
41925;SDS011;27615;51.826;5.692;2022-12-18T14:13:08;23.23;;;14.07;;
41925;SDS011;27615;51.826;5.692;2022-12-18T14:15:38;23.35;;;13.27;;
41925;SDS011;27615;51.826;5.692;2022-12-18T14:20:45;24.90;;;14.00;;
41925;SDS011;27615;51.826;5.692;2022-12-18T14:29:10;25.80;;;14.07;;
41925;SDS011;27615;51.826;5.692;2022-12-18T14:34:52;23.08;;;13.88;;
41925;SDS011;27615;51.826;5.692;2022-12-18T14:37:23;26.08;;;13.85;;
41925;SDS011;27615;51.826;5.692;2022-12-18T14:39:53;26.40;;;15.18;;
41925;SDS011;27615;51.826;5.692;2022-12-18T14:42:22;24.70;;;13.27;;
41925;SDS011;27615;51.826;5.692;2022-12-18T14:47:55;26.17;;;14.30;;
41925;SDS011;27615;51.826;5.692;2022-12-18T14:50:21;24.92;;;14.93;;
41925;SDS011;27615;51.826;5.692;2022-12-18T14:52:46;28.67;;;14.93;;
41925;SDS011;27615;51.826;5.692;2022-12-18T14:55:17;25.70;;;14.73;;
41925;SDS011;27615;51.826;5.692;2022-12-18T14:57:45;31.23;;;15.55;;
41925;SDS011;27615;51.826;5.692;2022-12-18T15:00:15;25.13;;;13.90;;
41925;SDS011;27615;51.826;5.692;2022-12-18T15:02:43;25.98;;;15.23;;
41925;SDS011;27615;51.826;5.692;2022-12-18T15:05:24;26.70;;;15.15;;
41925;SDS011;27615;51.826;5.692;2022-12-18T15:07:53;26.77;;;14.13;;
41925;SDS011;27615;51.826;5.692;2022-12-18T15:10:24;26.13;;;15.20;;
41925;SDS011;27615;51.826;5.692;2022-12-18T15:18:05;28.33;;;14.90;;
41925;SDS011;27615;51.826;5.692;2022-12-18T15:20:49;26.40;;;15.02;;
41925;SDS011;27615;51.826;5.692;2022-12-18T15:23:16;29.63;;;15.57;;
41925;SDS011;27615;51.826;5.692;2022-12-18T15:26:03;25.50;;;15.18;;
41925;SDS011;27615;51.826;5.692;2022-12-18T15:28:43;27.27;;;15.30;;
41925;SDS011;27615;51.826;5.692;2022-12-18T15:31:20;26.77;;;15.45;;
41925;SDS011;27615;51.826;5.692;2022-12-18T15:36:23;28.48;;;15.75;;
41925;SDS011;27615;51.826;5.692;2022-12-18T15:38:50;31.45;;;15.95;;
41925;SDS011;27615;51.826;5.692;2022-12-18T15:41:17;33.20;;;16.48;;
41925;SDS011;27615;51.826;5.692;2022-12-18T15:43:45;32.47;;;16.45;;
41925;SDS011;27615;51.826;5.692;2022-12-18T15:46:12;30.95;;;16.95;;
41925;SDS011;27615;51.826;5.692;2022-12-18T15:48:43;29.80;;;17.20;;
41925;SDS011;27615;51.826;5.692;2022-12-18T15:51:11;31.65;;;16.63;;
41925;SDS011;27615;51.826;5.692;2022-12-18T15:53:43;28.70;;;15.15;;
41925;SDS011;27615;51.826;5.692;2022-12-18T15:56:10;31.08;;;17.23;;
41925;SDS011;27615;51.826;5.692;2022-12-18T15:58:55;30.85;;;17.38;;
41925;SDS011;27615;51.826;5.692;2022-12-18T16:01:22;27.50;;;16.10;;
41925;SDS011;27615;51.826;5.692;2022-12-18T16:03:49;30.77;;;17.27;;
41925;SDS011;27615;51.826;5.692;2022-12-18T16:06:14;34.53;;;18.50;;
41925;SDS011;27615;51.826;5.692;2022-12-18T16:08:40;31.25;;;18.02;;
41925;SDS011;27615;51.826;5.692;2022-12-18T16:11:05;35.17;;;18.38;;
41925;SDS011;27615;51.826;5.692;2022-12-18T16:13:41;33.85;;;17.15;;
41925;SDS011;27615;51.826;5.692;2022-12-18T16:16:07;28.38;;;16.60;;
41925;SDS011;27615;51.826;5.692;2022-12-18T16:18:33;33.97;;;18.33;;